ANA759 RJTT-RJNK
Flight info
| Callsign | ANA759 |
|---|---|
| Flight time | N/A |
| Altitude | 24000 |
| Route | BEKLA Y884 KMC |
| Aircraft | A21N/M-SDE3FGHIRWY/LB1 |
Departure
| Time | 2026-05-06 10:57 |
|---|---|
| Airport | Tokyo Haneda International Airport (RJTT) |
Arrival
| Time | N/A |
|---|---|
| Airport | Komatsu Airport / JASDF Komatsu Air Base (RJNK) |
| Time | Latitude | Longitude | Altitude | Speed | Heading |
|---|---|---|---|---|---|
| 2026-05-06 10:44 | 35.55356 | 139.79036 | 44 ft | 0 kts | 61° |
| 2026-05-06 10:52 | 35.55356 | 139.79038 | 44 ft | 0 kts | 61° |
| 2026-05-06 10:52 | 35.55362 | 139.79050 | 44 ft | 3 kts | 61° |
| 2026-05-06 10:52 | 35.55376 | 139.79082 | 44 ft | 4 kts | 61° |
| 2026-05-06 10:52 | 35.55406 | 139.79108 | 44 ft | 6 kts | 354° |
| 2026-05-06 10:53 | 35.55452 | 139.79089 | 44 ft | 7 kts | 5° |
| 2026-05-06 10:53 | 35.55495 | 139.79132 | 44 ft | 8 kts | 43° |
| 2026-05-06 10:53 | 35.55553 | 139.79137 | 44 ft | 9 kts | 332° |
| 2026-05-06 10:53 | 35.55616 | 139.79092 | 44 ft | 11 kts | 329° |
| 2026-05-06 10:54 | 35.55684 | 139.79044 | 44 ft | 11 kts | 329° |
| 2026-05-06 10:54 | 35.55756 | 139.78992 | 44 ft | 12 kts | 330° |
| 2026-05-06 10:54 | 35.55836 | 139.78935 | 44 ft | 14 kts | 330° |
| 2026-05-06 10:54 | 35.55924 | 139.78873 | 44 ft | 15 kts | 330° |
| 2026-05-06 10:55 | 35.56017 | 139.78807 | 44 ft | 16 kts | 330° |
| 2026-05-06 10:55 | 35.56079 | 139.78766 | 44 ft | 8 kts | 344° |
| 2026-05-06 10:55 | 35.56133 | 139.78786 | 44 ft | 8 kts | 48° |
| 2026-05-06 10:55 | 35.56165 | 139.78851 | 44 ft | 9 kts | 61° |
| 2026-05-06 10:56 | 35.56179 | 139.78931 | 44 ft | 10 kts | 115° |
| 2026-05-06 10:56 | 35.56133 | 139.78979 | 44 ft | 7 kts | 150° |
| 2026-05-06 10:56 | 35.55999 | 139.79074 | 44 ft | 53 kts | 150° |
| 2026-05-06 10:56 | 35.55452 | 139.79463 | 44 ft | 124 kts | 150° |
| 2026-05-06 10:57 | 35.54549 | 139.80103 | 128 ft | 170 kts | 151° |
| 2026-05-06 10:57 | 35.53563 | 139.80823 | 849 ft | 166 kts | 147° |
| 2026-05-06 10:57 | 35.52684 | 139.81743 | 1548 ft | 171 kts | 137° |
| 2026-05-06 10:57 | 35.51836 | 139.82831 | 2047 ft | 187 kts | 136° |
| 2026-05-06 10:58 | 35.50916 | 139.84036 | 2531 ft | 204 kts | 136° |
| 2026-05-06 10:58 | 35.49908 | 139.85341 | 2942 ft | 227 kts | 137° |
| 2026-05-06 10:58 | 35.48768 | 139.86803 | 3455 ft | 247 kts | 136° |
| 2026-05-06 10:58 | 35.47812 | 139.88574 | 4103 ft | 266 kts | 110° |
| 2026-05-06 10:59 | 35.47781 | 139.90825 | 4924 ft | 279 kts | 75° |
| 2026-05-06 10:59 | 35.48780 | 139.92821 | 5742 ft | 287 kts | 42° |
| 2026-05-06 10:59 | 35.50454 | 139.94002 | 6544 ft | 290 kts | 13° |
| 2026-05-06 10:59 | 35.52391 | 139.94379 | 7391 ft | 291 kts | 4° |
| 2026-05-06 11:00 | 35.54387 | 139.94592 | 8207 ft | 294 kts | 2° |
| 2026-05-06 11:00 | 35.56432 | 139.94798 | 9027 ft | 297 kts | 2° |
| 2026-05-06 11:00 | 35.58286 | 139.95004 | 9758 ft | 299 kts | 3° |
| 2026-05-06 11:00 | 35.60235 | 139.95238 | 10483 ft | 303 kts | 4° |
| 2026-05-06 11:01 | 35.62118 | 139.95476 | 10876 ft | 316 kts | 4° |
| 2026-05-06 11:01 | 35.64590 | 139.95795 | 11244 ft | 336 kts | 5° |
| 2026-05-06 11:01 | 35.66910 | 139.96097 | 11784 ft | 345 kts | 5° |
| 2026-05-06 11:01 | 35.69185 | 139.96257 | 12478 ft | 346 kts | 354° |
| 2026-05-06 11:02 | 35.71468 | 139.95442 | 13167 ft | 344 kts | 329° |
| 2026-05-06 11:02 | 35.73271 | 139.93605 | 13855 ft | 341 kts | 306° |
| 2026-05-06 11:02 | 35.74356 | 139.91067 | 14549 ft | 337 kts | 284° |
| 2026-05-06 11:02 | 35.74761 | 139.88333 | 15262 ft | 335 kts | 275° |
| 2026-05-06 11:03 | 35.75052 | 139.85445 | 15861 ft | 340 kts | 275° |